createdAt,value
2018-07-03T00:00:42.655Z,12.9
2018-07-03T00:01:44.681Z,12.9
2018-07-03T00:02:46.718Z,12.9
2018-07-03T00:03:49.095Z,12.9
2018-07-03T00:04:51.121Z,12.9
2018-07-03T00:05:53.149Z,12.8
2018-07-03T00:06:55.577Z,12.8
2018-07-03T00:07:57.623Z,12.8
2018-07-03T00:08:59.660Z,12.8
2018-07-03T00:10:01.699Z,12.8
2018-07-03T00:11:04.133Z,12.8
2018-07-03T00:12:06.163Z,12.7
2018-07-03T00:13:08.193Z,12.8
2018-07-03T00:14:10.225Z,12.8
2018-07-03T00:15:12.668Z,12.7
2018-07-03T00:16:14.708Z,12.7
2018-07-03T00:17:17.016Z,12.7
2018-07-03T00:18:19.063Z,12.7
2018-07-03T00:19:21.105Z,12.6
2018-07-03T00:20:23.140Z,12.6
2018-07-03T00:21:25.183Z,12.6
2018-07-03T00:22:27.214Z,12.6
2018-07-03T00:23:29.258Z,12.6
2018-07-03T00:24:31.687Z,12.6
2018-07-03T00:25:33.720Z,12.6
2018-07-03T00:26:35.767Z,12.5
2018-07-03T00:27:37.803Z,12.5
2018-07-03T00:28:39.844Z,12.6
2018-07-03T00:29:41.880Z,12.5
2018-07-03T00:30:43.917Z,12.4
2018-07-03T00:31:45.950Z,12.7
2018-07-03T00:32:48.365Z,12.5
2018-07-03T00:33:50.404Z,12.6
2018-07-03T00:34:52.749Z,12.6
2018-07-03T00:35:54.795Z,12.6
2018-07-03T00:36:56.829Z,12.6
2018-07-03T00:37:58.869Z,12.6
2018-07-03T00:39:00.909Z,12.6
2018-07-03T00:40:03.234Z,12.6
2018-07-03T00:41:05.273Z,12.8
2018-07-03T00:42:07.301Z,12.7
2018-07-03T00:43:09.348Z,12.7
2018-07-03T00:44:11.390Z,12.7
2018-07-03T00:45:13.428Z,13
2018-07-03T00:46:15.463Z,12.8
2018-07-03T00:47:18.170Z,12.8
2018-07-03T00:48:20.483Z,12.7
2018-07-03T00:49:22.523Z,12.6
2018-07-03T00:50:24.556Z,12.6
2018-07-03T00:51:26.882Z,12.6
2018-07-03T00:52:28.919Z,12.6
2018-07-03T00:53:31.337Z,12.6
2018-07-03T00:54:33.765Z,12.6
2018-07-03T00:55:35.809Z,12.6
2018-07-03T00:56:37.837Z,12.7
2018-07-03T00:57:39.878Z,12.6
2018-07-03T00:58:41.922Z,12.6
2018-07-03T00:59:43.957Z,12.6
2018-07-03T01:00:45.998Z,12.7
2018-07-03T01:01:48.034Z,12.6
2018-07-03T01:02:50.361Z,12.8
2018-07-03T01:03:52.711Z,12.9
2018-07-03T01:04:54.734Z,12.9
2018-07-03T01:05:56.784Z,13
2018-07-03T01:06:58.815Z,13
2018-07-03T01:08:00.854Z,13
2018-07-03T01:09:02.894Z,13.1
2018-07-03T01:10:04.920Z,13
2018-07-03T01:11:06.962Z,12.9
2018-07-03T01:12:08.996Z,12.9
2018-07-03T01:13:11.037Z,12.8
2018-07-03T01:14:13.070Z,12.7
2018-07-03T01:15:15.123Z,12.7
2018-07-03T01:16:17.463Z,12.6
2018-07-03T01:17:19.502Z,12.6
2018-07-03T01:18:21.539Z,12.6
2018-07-03T01:19:23.573Z,12.5
2018-07-03T01:20:25.988Z,12.4
2018-07-03T01:21:28.345Z,12.4
2018-07-03T01:22:30.376Z,12.3
2018-07-03T01:23:32.436Z,12.3
2018-07-03T01:24:34.468Z,12.3
2018-07-03T01:25:36.829Z,12.3
2018-07-03T01:26:38.862Z,12.2
2018-07-03T01:27:40.895Z,12.2
2018-07-03T01:28:42.941Z,12.3
2018-07-03T01:29:44.977Z,12.4
2018-07-03T01:30:47.009Z,12.3
2018-07-03T01:31:49.048Z,12.4
2018-07-03T01:32:51.352Z,12.4
2018-07-03T01:33:53.395Z,12.4
2018-07-03T01:34:55.431Z,12.4
2018-07-03T01:35:57.463Z,12.4
2018-07-03T01:36:59.495Z,12.4
2018-07-03T01:38:01.541Z,12.5
2018-07-03T01:39:03.566Z,12.4
2018-07-03T01:40:05.931Z,12.4
2018-07-03T01:41:07.956Z,12.4
2018-07-03T01:42:10.003Z,12.4
2018-07-03T01:43:12.319Z,12.4
2018-07-03T01:44:14.358Z,12.3
2018-07-03T01:45:16.677Z,12.3
2018-07-03T01:46:18.709Z,12.3
2018-07-03T01:47:20.750Z,12.3
2018-07-03T01:48:22.785Z,12.3
2018-07-03T01:49:24.811Z,12.3
2018-07-03T01:50:26.871Z,12.2
2018-07-03T01:51:28.899Z,12.2
2018-07-03T01:52:31.223Z,12.2
2018-07-03T01:53:33.259Z,12.2
2018-07-03T01:54:35.295Z,12.1
2018-07-03T01:55:37.640Z,12.1
2018-07-03T01:56:39.669Z,12.2
2018-07-03T01:57:41.701Z,12.1
2018-07-03T01:58:43.739Z,12.1
2018-07-03T01:59:45.770Z,12.1
2018-07-03T02:00:47.818Z,12
2018-07-03T02:01:49.851Z,12
2018-07-03T02:02:51.900Z,12
2018-07-03T02:03:53.929Z,12
2018-07-03T02:04:55.963Z,11.9
2018-07-03T02:05:58.389Z,11.9
2018-07-03T02:07:00.817Z,11.9
2018-07-03T02:08:02.860Z,11.9
2018-07-03T02:09:04.888Z,11.9
2018-07-03T02:10:06.921Z,11.9
2018-07-03T02:11:09.241Z,11.7
2018-07-03T02:12:11.279Z,11.7
2018-07-03T02:13:13.908Z,11.8
2018-07-03T02:14:15.953Z,11.9
2018-07-03T02:15:17.991Z,11.9
2018-07-03T02:16:20.580Z,11.7
2018-07-03T02:17:22.619Z,11.8
2018-07-03T02:18:24.653Z,11.8
2018-07-03T02:19:26.974Z,11.8
2018-07-03T02:20:29.312Z,11.9
2018-07-03T02:21:31.364Z,11.8
2018-07-03T02:22:33.399Z,11.9
2018-07-03T02:23:35.419Z,11.9
2018-07-03T02:24:37.460Z,11.9
2018-07-03T02:25:39.496Z,11.9
2018-07-03T02:26:41.537Z,11.8
2018-07-03T02:27:43.579Z,11.8
2018-07-03T02:28:45.898Z,11.8
2018-07-03T02:29:48.228Z,11.8
2018-07-03T02:30:50.262Z,11.7
2018-07-03T02:31:52.290Z,11.6
2018-07-03T02:32:54.342Z,11.6
2018-07-03T02:33:56.376Z,11.6
2018-07-03T02:34:58.795Z,11.6
2018-07-03T02:36:00.848Z,11.6
2018-07-03T02:37:03.176Z,11.6
2018-07-03T02:38:05.585Z,11.6
2018-07-03T02:39:07.694Z,11.5
2018-07-03T02:40:09.668Z,11.5
2018-07-03T02:41:11.713Z,11.5
2018-07-03T02:42:13.757Z,11.5
2018-07-03T02:43:15.845Z,11.4
2018-07-03T02:44:18.172Z,11.5
2018-07-03T02:45:20.198Z,11.5
2018-07-03T02:46:22.805Z,11.4
2018-07-03T02:47:25.133Z,11.4
2018-07-03T02:48:27.168Z,11.4
2018-07-03T02:49:29.597Z,11.5
2018-07-03T02:50:31.631Z,11.4
2018-07-03T02:51:33.962Z,11.4
2018-07-03T02:52:36.590Z,11.3
2018-07-03T02:53:38.619Z,11.4
2018-07-03T02:54:40.959Z,11.4
2018-07-03T02:55:42.995Z,11.3
2018-07-03T02:56:45.302Z,11.3
2018-07-03T02:57:47.734Z,11.4
2018-07-03T02:58:49.776Z,11.3
2018-07-03T02:59:52.103Z,11.2
2018-07-03T03:00:54.137Z,11.2
2018-07-03T03:01:56.178Z,11.3
2018-07-03T03:02:58.812Z,11.3
2018-07-03T03:04:01.118Z,11.2
2018-07-03T03:05:03.238Z,11.4
2018-07-03T03:06:05.215Z,11.3
2018-07-03T03:07:07.251Z,11.4
2018-07-03T03:08:09.338Z,11.3
2018-07-03T03:09:11.313Z,11.3
2018-07-03T03:10:13.738Z,11.3
2018-07-03T03:11:16.473Z,11.3
2018-07-03T03:12:18.818Z,11.3
2018-07-03T03:13:20.855Z,11.4
2018-07-03T03:14:22.889Z,11.5
2018-07-03T03:15:24.921Z,11.4
2018-07-03T03:16:26.959Z,11.4
2018-07-03T03:17:29.272Z,11.3
2018-07-03T03:18:31.605Z,11.4
2018-07-03T03:19:34.870Z,11.3
2018-07-03T03:20:36.918Z,11.3
2018-07-03T03:21:39.324Z,11.3
2018-07-03T03:22:41.645Z,11.3
2018-07-03T03:23:43.960Z,11.3
2018-07-03T03:24:46.385Z,11.3
2018-07-03T03:25:48.410Z,11.4
2018-07-03T03:26:50.465Z,11.4
2018-07-03T03:27:52.788Z,11.4
2018-07-03T03:28:54.832Z,11.4
2018-07-03T03:29:56.862Z,11.4
2018-07-03T03:30:59.192Z,11.4
2018-07-03T03:32:01.517Z,11.4
2018-07-03T03:33:03.551Z,11.4
2018-07-03T03:34:05.595Z,11.4
2018-07-03T03:35:07.630Z,11.4
2018-07-03T03:36:09.658Z,11.4
2018-07-03T03:37:11.709Z,11.5
2018-07-03T03:38:13.739Z,11.5
2018-07-03T03:39:15.784Z,11.5
2018-07-03T03:40:18.198Z,11.5
2018-07-03T03:41:20.514Z,11.6
2018-07-03T03:42:22.545Z,11.6
2018-07-03T03:43:24.869Z,11.5
2018-07-03T03:44:26.894Z,11.5
2018-07-03T03:45:28.943Z,11.5
2018-07-03T03:46:31.262Z,11.5
2018-07-03T03:47:33.293Z,11.6
2018-07-03T03:48:35.334Z,11.7
2018-07-03T03:49:37.377Z,11.7
2018-07-03T03:50:39.729Z,11.7
2018-07-03T03:51:41.756Z,11.7
2018-07-03T03:52:44.071Z,11.7
2018-07-03T03:53:46.129Z,11.7
2018-07-03T03:54:48.153Z,11.7
2018-07-03T03:55:50.185Z,11.7
2018-07-03T03:56:52.230Z,11.7
2018-07-03T03:57:54.273Z,11.7
2018-07-03T03:58:56.302Z,11.7
2018-07-03T03:59:58.343Z,11.6
2018-07-03T04:01:01.087Z,11.6
2018-07-03T04:02:03.441Z,11.6
2018-07-03T04:03:05.462Z,11.6
2018-07-03T04:04:07.495Z,11.6
2018-07-03T04:05:09.533Z,11.7
2018-07-03T04:06:12.241Z,11.7
2018-07-03T04:07:14.661Z,11.7
2018-07-03T04:08:16.706Z,11.8
2018-07-03T04:09:18.745Z,11.7
2018-07-03T04:10:20.769Z,11.7
2018-07-03T04:11:22.818Z,11.9
2018-07-03T04:12:25.132Z,11.9
2018-07-03T04:13:27.475Z,12
2018-07-03T04:14:29.507Z,12
2018-07-03T04:15:31.550Z,12
2018-07-03T04:16:33.592Z,12
2018-07-03T04:17:38.952Z,12
2018-07-03T04:18:40.954Z,12.1
2018-07-03T04:19:43.002Z,12.2
2018-07-03T04:20:46.466Z,12.4
2018-07-03T04:21:48.493Z,12.7
2018-07-03T04:22:50.531Z,12.8
2018-07-03T04:23:52.560Z,12.9
2018-07-03T04:24:54.605Z,12.8
2018-07-03T04:25:56.920Z,12.8
2018-07-03T04:26:58.923Z,12.8
2018-07-03T04:28:02.382Z,12.8
2018-07-03T04:29:04.368Z,12.9
2018-07-03T04:30:06.395Z,12.9
2018-07-03T04:31:08.394Z,13
2018-07-03T04:32:10.395Z,13.1
2018-07-03T04:33:12.394Z,13.2
2018-07-03T04:34:14.400Z,13.3
2018-07-03T04:35:16.397Z,13.5
2018-07-03T04:36:18.378Z,13.5
2018-07-03T04:37:20.378Z,13.6
2018-07-03T04:38:22.700Z,13.6
2018-07-03T04:39:25.369Z,13.6
2018-07-03T04:40:27.378Z,13.6
2018-07-03T04:41:29.447Z,13.6
2018-07-03T04:43:02.055Z,13.6
2018-07-03T04:44:07.121Z,13.7
2018-07-03T04:45:09.168Z,13.7
2018-07-03T04:46:11.204Z,13.7
2018-07-03T04:47:13.250Z,13.7
2018-07-03T04:48:15.577Z,13.8
2018-07-03T04:49:17.885Z,13.9
2018-07-03T04:50:19.932Z,14
2018-07-03T04:51:21.973Z,14.1
2018-07-03T04:52:24.010Z,14.2
2018-07-03T04:53:26.098Z,14.4
2018-07-03T04:54:28.075Z,14.4
2018-07-03T04:55:30.403Z,14.4
2018-07-03T04:56:32.442Z,14.4
2018-07-03T04:57:34.484Z,14.5
2018-07-03T04:58:36.849Z,14.5
2018-07-03T04:59:38.890Z,14.6
2018-07-03T05:00:40.926Z,14.7
2018-07-03T05:01:42.918Z,14.8
2018-07-03T05:02:47.980Z,14.8
2018-07-03T05:03:50.021Z,14.8
2018-07-03T05:04:52.055Z,14.9
2018-07-03T05:05:54.089Z,14.9
2018-07-03T05:06:56.137Z,14.9
2018-07-03T05:07:59.557Z,14.9
2018-07-03T05:09:02.227Z,14.9
2018-07-03T05:10:04.997Z,14.9
2018-07-03T05:11:06.962Z,15
2018-07-03T05:12:09.248Z,15.1
2018-07-03T05:13:11.250Z,15.1
2018-07-03T05:14:13.253Z,15.2
2018-07-03T05:15:15.251Z,15.3
2018-07-03T05:16:17.265Z,15.3
2018-07-03T05:17:19.317Z,15.2
2018-07-03T05:18:21.260Z,15.3
2018-07-03T05:19:23.254Z,15.3
2018-07-03T05:20:25.255Z,15.3
2018-07-03T05:21:30.281Z,15.4
2018-07-03T05:22:32.326Z,15.4
2018-07-03T05:23:34.665Z,15.5
2018-07-03T05:24:36.769Z,15.5
2018-07-03T05:25:38.990Z,15.5
2018-07-03T05:26:44.025Z,15.6
2018-07-03T05:27:46.078Z,15.7
2018-07-03T05:28:48.122Z,15.8
2018-07-03T05:29:50.449Z,15.7
2018-07-03T05:30:52.784Z,15.7
2018-07-03T05:31:55.218Z,15.7
2018-07-03T05:32:57.263Z,15.8
2018-07-03T05:33:59.298Z,15.8
2018-07-03T05:35:01.395Z,15.9
2018-07-03T05:36:03.445Z,16
2018-07-03T05:37:05.474Z,16.2
2018-07-03T05:38:07.523Z,16.3
2018-07-03T05:39:09.571Z,16.4
2018-07-03T05:40:11.607Z,16.4
2018-07-03T05:41:13.925Z,16.5
2018-07-03T05:42:15.972Z,16.5
2018-07-03T05:43:18.019Z,16.5
2018-07-03T05:44:20.344Z,16.5
2018-07-03T05:45:22.378Z,16.6
2018-07-03T05:46:24.418Z,16.5
2018-07-03T05:47:26.462Z,16.6
2018-07-03T05:48:28.510Z,16.7
2018-07-03T05:49:30.835Z,16.8
2018-07-03T05:50:32.881Z,16.9
2018-07-03T05:51:35.317Z,17
2018-07-03T05:52:37.353Z,17
2018-07-03T05:53:39.402Z,17.1
2018-07-03T05:54:41.442Z,17.1
2018-07-03T05:55:43.494Z,17.2
2018-07-03T05:56:45.536Z,17.2
2018-07-03T05:57:47.559Z,17.2
2018-07-03T05:58:50.374Z,17.2
2018-07-03T05:59:52.420Z,17.3
2018-07-03T06:00:54.464Z,17.3
2018-07-03T06:01:56.506Z,17.4
2018-07-03T06:02:58.560Z,17.5
2018-07-03T06:04:00.609Z,17.5
2018-07-03T06:05:02.640Z,17.6
2018-07-03T06:06:04.686Z,17.6
2018-07-03T06:07:06.726Z,17.7
2018-07-03T06:08:09.058Z,17.7
2018-07-03T06:09:11.837Z,17.8
2018-07-03T06:10:13.851Z,17.8
2018-07-03T06:11:15.882Z,17.9
2018-07-03T06:12:18.236Z,17.9
2018-07-03T06:13:20.281Z,17.9
2018-07-03T06:14:22.325Z,17.9
2018-07-03T06:15:24.587Z,17.9
2018-07-03T06:16:26.415Z,18
2018-07-03T06:17:28.455Z,18
2018-07-03T06:18:30.508Z,18.1
2018-07-03T06:19:32.536Z,18.1
2018-07-03T06:20:34.582Z,18.2
2018-07-03T06:21:36.632Z,18.2
2018-07-03T06:22:38.704Z,18.3
2018-07-03T06:23:40.718Z,18.3
2018-07-03T06:24:43.060Z,18.3
2018-07-03T06:25:45.104Z,18.4
2018-07-03T06:26:47.454Z,18.4
2018-07-03T06:27:49.786Z,18.4
2018-07-03T06:28:52.177Z,18.5
2018-07-03T06:29:54.208Z,18.5
2018-07-03T06:30:56.258Z,18.5
2018-07-03T06:31:58.300Z,18.6
2018-07-03T06:33:00.351Z,18.6
2018-07-03T06:34:03.081Z,18.6
2018-07-03T06:35:05.125Z,18.7
2018-07-03T06:36:07.169Z,18.7
2018-07-03T06:37:09.221Z,18.8
2018-07-03T06:38:11.255Z,18.9
2018-07-03T06:39:13.297Z,18.9
2018-07-03T06:40:15.352Z,18.9
2018-07-03T06:41:17.397Z,19
2018-07-03T06:42:19.448Z,19
2018-07-03T06:43:21.496Z,19.1
2018-07-03T06:44:23.826Z,19.1
2018-07-03T06:45:26.162Z,19.1
2018-07-03T06:46:28.200Z,19.2
2018-07-03T06:47:30.245Z,19.2
2018-07-03T06:48:32.245Z,19.3
2018-07-03T06:49:34.274Z,19.3
2018-07-03T06:50:36.282Z,19.4
2018-07-03T06:51:38.317Z,19.4
2018-07-03T06:52:40.361Z,19.4
2018-07-03T06:53:42.406Z,19.4
2018-07-03T06:54:44.745Z,19.5
2018-07-03T06:55:46.790Z,19.5
2018-07-03T06:56:48.950Z,19.6
2018-07-03T06:57:50.908Z,19.6
2018-07-03T06:58:53.148Z,19.6
2018-07-03T06:59:55.157Z,19.7
2018-07-03T07:00:57.171Z,19.8
2018-07-03T07:01:59.452Z,19.8
2018-07-03T07:03:02.021Z,19.8
2018-07-03T07:04:04.053Z,19.9
2018-07-03T07:05:06.098Z,19.9
2018-07-03T07:06:08.144Z,20
2018-07-03T07:07:10.499Z,20
2018-07-03T07:08:12.542Z,20.1
2018-07-03T07:09:14.804Z,20.2
2018-07-03T07:10:16.654Z,20.2
2018-07-03T07:11:18.704Z,20.3
2018-07-03T07:12:20.749Z,20.3
2018-07-03T07:13:22.801Z,20.3
2018-07-03T07:14:25.228Z,20.4
2018-07-03T07:15:27.278Z,20.5
2018-07-03T07:16:29.332Z,20.5
2018-07-03T07:17:31.373Z,20.5
2018-07-03T07:18:33.433Z,20.6
2018-07-03T07:19:35.470Z,20.7
2018-07-03T07:20:37.515Z,20.7
2018-07-03T07:21:39.569Z,20.7
2018-07-03T07:22:41.991Z,20.7
2018-07-03T07:23:44.421Z,20.8
2018-07-03T07:24:46.470Z,20.8
2018-07-03T07:25:48.515Z,20.9
2018-07-03T07:26:50.956Z,20.9
2018-07-03T07:27:53.007Z,21
2018-07-03T07:28:55.064Z,21
2018-07-03T07:29:57.119Z,21
2018-07-03T07:30:59.153Z,21.1
2018-07-03T07:32:01.496Z,21.1
2018-07-03T07:33:03.831Z,21.1
2018-07-03T07:34:06.262Z,21.2
2018-07-03T07:35:08.331Z,21.4
2018-07-03T07:36:10.380Z,21.4
2018-07-03T07:37:12.446Z,21.4
2018-07-03T07:38:14.491Z,21.5
2018-07-03T07:39:16.842Z,21.6
2018-07-03T07:40:18.897Z,21.6
2018-07-03T07:41:21.203Z,21.6
2018-07-03T07:42:23.203Z,21.7
2018-07-03T07:43:25.595Z,21.7
2018-07-03T07:44:27.603Z,21.8
2018-07-03T07:45:29.601Z,21.8
2018-07-03T07:46:31.657Z,21.8
2018-07-03T07:47:33.706Z,21.9
2018-07-03T07:48:36.413Z,21.8
2018-07-03T07:49:38.469Z,21.9
2018-07-03T07:50:40.511Z,22
2018-07-03T07:51:42.527Z,22
2018-07-03T07:52:44.549Z,22
2018-07-03T07:53:46.610Z,22
2018-07-03T07:54:48.684Z,22.1
2018-07-03T07:55:51.012Z,22.2
2018-07-03T07:56:53.361Z,22.3
2018-07-03T07:57:55.408Z,22.3
2018-07-03T07:58:57.460Z,22.4
2018-07-03T07:59:59.538Z,22.4
2018-07-03T08:01:01.567Z,22.4
2018-07-03T08:02:03.554Z,22.5
2018-07-03T08:03:06.232Z,22.6
2018-07-03T08:04:08.345Z,22.6
2018-07-03T08:05:10.645Z,22.7
2018-07-03T08:06:12.648Z,22.7
2018-07-03T08:07:14.655Z,22.8
2018-07-03T08:08:16.656Z,22.7
2018-07-03T08:09:18.688Z,22.8
2018-07-03T08:10:20.736Z,22.9
2018-07-03T08:11:22.787Z,22.9
2018-07-03T08:12:25.222Z,22.9
2018-07-03T08:13:27.264Z,22.9
2018-07-03T08:14:29.318Z,22.9
2018-07-03T08:15:31.326Z,23
2018-07-03T08:16:33.377Z,22.9
2018-07-03T08:17:35.433Z,22.9
2018-07-03T08:18:37.787Z,22.9
2018-07-03T08:19:40.750Z,23
2018-07-03T08:20:43.046Z,23
2018-07-03T08:21:45.084Z,23.1
2018-07-03T08:22:47.517Z,23.1
2018-07-03T08:23:49.567Z,23.3
2018-07-03T08:24:51.575Z,23.3
2018-07-03T08:25:54.017Z,23.4
2018-07-03T08:26:57.253Z,23.4
2018-07-03T08:27:59.689Z,23.4
2018-07-03T08:29:01.714Z,23.3
2018-07-03T08:30:04.033Z,23.4
2018-07-03T08:31:06.085Z,23.6
2018-07-03T08:32:08.135Z,23.7
2018-07-03T08:33:10.138Z,23.9
2018-07-03T08:34:15.932Z,23.7
2018-07-03T08:35:17.967Z,23.9
2018-07-03T08:36:20.016Z,23.9
2018-07-03T08:37:22.073Z,24
2018-07-03T08:38:24.414Z,24
2018-07-03T08:39:26.473Z,24
2018-07-03T08:40:28.777Z,24.1
2018-07-03T08:41:31.136Z,24.3
2018-07-03T08:42:33.776Z,24.2
2018-07-03T08:43:36.088Z,24.1
2018-07-03T08:44:40.814Z,24.3
2018-07-03T08:45:42.963Z,24.5
2018-07-03T08:46:45.114Z,24.5
2018-07-03T08:47:47.536Z,24.6
2018-07-03T08:48:50.214Z,24.8
2018-07-03T08:49:52.292Z,24.7
2018-07-03T08:50:55.001Z,24.5
2018-07-03T08:51:57.094Z,24.6
2018-07-03T08:52:59.106Z,24.5
2018-07-03T08:54:01.819Z,24.6
2018-07-03T08:55:03.837Z,24.8
2018-07-03T08:56:05.947Z,25.1
2018-07-03T08:57:08.008Z,24.9
2018-07-03T08:58:10.137Z,25.1
2018-07-03T08:59:12.183Z,25.2
2018-07-03T09:00:14.390Z,25.2
2018-07-03T09:01:17.275Z,25.3
2018-07-03T09:02:19.613Z,25.2
2018-07-03T09:03:22.040Z,25.1
2018-07-03T09:04:24.957Z,25.3
2018-07-03T09:05:27.236Z,25.3
2018-07-03T09:06:29.671Z,25.4
2018-07-03T09:07:31.711Z,25.4
2018-07-03T09:08:33.754Z,25.4
2018-07-03T09:09:35.804Z,25.4
2018-07-03T09:10:39.267Z,25.6
2018-07-03T09:11:41.287Z,25.6
2018-07-03T09:12:43.310Z,25.8
2018-07-03T09:13:45.337Z,25.8
2018-07-03T09:14:49.045Z,25.9
2018-07-03T09:15:51.073Z,25.7
2018-07-03T09:16:53.132Z,26.1
2018-07-03T09:17:55.247Z,26.1
2018-07-03T09:18:57.826Z,26.3
2018-07-03T09:20:00.155Z,26.1
2018-07-03T09:21:02.229Z,25.5
2018-07-03T09:22:04.241Z,25.9
2018-07-03T09:23:06.281Z,26.3
2018-07-03T09:24:08.313Z,26.1
2018-07-03T09:25:10.328Z,26.3
2018-07-03T09:26:12.362Z,26.1
2018-07-03T09:27:14.935Z,26.5
2018-07-03T09:28:16.915Z,26.5
2018-07-03T09:29:19.136Z,26.7
2018-07-03T09:30:21.555Z,26.7
2018-07-03T09:31:24.955Z,26.9
2018-07-03T09:32:27.018Z,26.6
2018-07-03T09:33:29.037Z,27.3
2018-07-03T09:34:31.112Z,27.5
2018-07-03T09:35:33.357Z,27.3
2018-07-03T09:36:36.161Z,27.3
2018-07-03T09:37:39.294Z,26.9
2018-07-03T09:38:41.734Z,27
2018-07-03T09:39:44.177Z,26.8
2018-07-03T09:40:46.230Z,26.9
2018-07-03T09:41:48.273Z,27
2018-07-03T09:42:50.316Z,27.1
2018-07-03T09:43:52.375Z,26.8
2018-07-03T09:44:54.407Z,26.5
2018-07-03T09:45:56.415Z,26.6
2018-07-03T09:46:58.425Z,26.9
2018-07-03T09:48:00.562Z,27.2
2018-07-03T09:49:32.700Z,27.3
2018-07-03T09:50:34.717Z,27.5
2018-07-03T09:51:36.772Z,27.6
2018-07-03T09:52:40.242Z,27.5
2018-07-03T09:53:42.451Z,27.6
2018-07-03T09:54:44.845Z,27.6
2018-07-03T09:55:47.077Z,27.8
2018-07-03T09:56:49.382Z,27.6
2018-07-03T09:57:51.830Z,27.3
2018-07-03T09:58:53.850Z,27.6
2018-07-03T09:59:57.733Z,28
2018-07-03T10:01:00.330Z,28
2018-07-03T10:02:02.652Z,27.9
2018-07-03T10:03:05.550Z,27.9
2018-07-03T10:04:08.830Z,27.8
2018-07-03T10:05:11.118Z,28
2018-07-03T10:06:13.870Z,27.9
2018-07-03T10:07:16.388Z,27.9
2018-07-03T10:08:19.650Z,28.1
2018-07-03T10:09:22.362Z,28.2
2018-07-03T10:10:26.220Z,28
2018-07-03T10:11:29.204Z,28.1
2018-07-03T10:12:31.702Z,28
2018-07-03T10:13:34.387Z,28.3
2018-07-03T10:14:37.389Z,28
2018-07-03T10:15:40.508Z,28.1
2018-07-03T10:16:42.840Z,28.3
2018-07-03T10:17:46.071Z,28.1
2018-07-03T10:18:49.290Z,28.3
2018-07-03T10:19:52.653Z,28.2
2018-07-03T10:20:55.457Z,28
2018-07-03T10:21:58.817Z,28.4
2018-07-03T10:23:01.323Z,28
2018-07-03T10:24:04.255Z,28.3
2018-07-03T10:25:07.072Z,28.4
2018-07-03T10:26:12.241Z,28.3
2018-07-03T10:27:15.023Z,28
2018-07-03T10:28:17.489Z,27.9
2018-07-03T10:29:20.241Z,28
2018-07-03T10:30:22.796Z,28
2018-07-03T10:31:25.602Z,27.6
2018-07-03T10:32:28.389Z,27.3
2018-07-03T10:33:30.846Z,27.1
2018-07-03T10:34:33.765Z,27.5
2018-07-03T10:35:36.543Z,27.5
2018-07-03T10:36:39.247Z,28.2
2018-07-03T10:37:41.616Z,28.4
2018-07-03T10:38:44.438Z,28.1
2018-07-03T10:39:46.979Z,28.2
2018-07-03T10:40:49.489Z,28.3
2018-07-03T10:41:51.981Z,28.1
2018-07-03T10:42:54.347Z,28.4
2018-07-03T10:43:56.825Z,28.7
2018-07-03T10:44:59.872Z,28.9
2018-07-03T10:46:02.285Z,28.6
2018-07-03T10:47:05.093Z,28.5
2018-07-03T10:48:09.740Z,28.6
2018-07-03T10:49:14.163Z,28.5
2018-07-03T10:50:20.362Z,28.8
2018-07-03T10:51:24.503Z,29.4
2018-07-03T10:52:29.411Z,29.1
2018-07-03T10:53:33.592Z,29
2018-07-03T10:54:39.428Z,28.9
2018-07-03T10:55:42.670Z,29
2018-07-03T10:56:47.035Z,29
2018-07-03T10:57:50.702Z,28.9
2018-07-03T10:58:54.201Z,29.1
2018-07-03T10:59:58.830Z,29.3
2018-07-03T11:01:03.331Z,29.4
2018-07-03T11:02:07.965Z,28.9
2018-07-03T11:03:12.188Z,29.1
2018-07-03T11:04:14.930Z,28.6
2018-07-03T11:05:17.373Z,28.9
2018-07-03T11:06:19.416Z,29.4
2018-07-03T11:07:21.455Z,29.4
2018-07-03T11:08:23.891Z,29
2018-07-03T11:09:26.513Z,28.9
2018-07-03T11:10:28.815Z,28.9
2018-07-03T11:11:30.888Z,28.6
2018-07-03T11:12:32.932Z,28.4
2018-07-03T11:13:34.978Z,28.5
2018-07-03T11:14:37.185Z,29
2018-07-03T11:15:39.299Z,29.2
2018-07-03T11:16:41.386Z,28.8
2018-07-03T11:17:43.425Z,29.1
2018-07-03T11:18:45.488Z,29.1
2018-07-03T11:19:47.686Z,29.1
2018-07-03T11:20:50.392Z,29
2018-07-03T11:21:52.704Z,28.9
2018-07-03T11:22:54.736Z,29.3
2018-07-03T11:23:56.777Z,29.4
2018-07-03T11:24:58.809Z,29.6
2018-07-03T11:26:01.152Z,29.7
2018-07-03T11:27:03.174Z,29.5
2018-07-03T11:28:05.209Z,29.4
2018-07-03T11:29:07.277Z,29.5
2018-07-03T11:30:09.299Z,29.5
2018-07-03T11:31:11.612Z,29.5
2018-07-03T11:32:13.640Z,29.7
2018-07-03T11:33:15.667Z,29.8
2018-07-03T11:34:17.699Z,29.6
2018-07-03T11:35:19.719Z,29.9
2018-07-03T11:36:21.761Z,29.9
2018-07-03T11:37:23.793Z,30
2018-07-03T11:38:25.817Z,29.6
2018-07-03T11:39:27.905Z,30.2
2018-07-03T11:40:29.924Z,29.6
2018-07-03T11:41:31.959Z,29.5
2018-07-03T11:42:34.399Z,29.5
2018-07-03T11:43:36.428Z,29.7
2018-07-03T11:44:38.738Z,29.3
2018-07-03T11:45:40.780Z,29.4
2018-07-03T11:46:43.092Z,29.6
2018-07-03T11:47:45.130Z,29.7
2018-07-03T11:48:47.167Z,29.8
2018-07-03T11:49:49.198Z,29.3
2018-07-03T11:50:51.218Z,29.7
2018-07-03T11:51:53.248Z,29.7
2018-07-03T11:52:55.595Z,29.9
2018-07-03T11:53:57.633Z,29.9
2018-07-03T11:54:59.931Z,29.7
2018-07-03T11:56:02.268Z,29.9
2018-07-03T11:57:04.312Z,29.6
2018-07-03T11:58:06.326Z,29.9
2018-07-03T11:59:08.362Z,29.4
2018-07-03T12:00:10.403Z,29.8
2018-07-03T12:01:12.440Z,30
2018-07-03T12:02:14.744Z,29.8
2018-07-03T12:03:16.768Z,29.6
2018-07-03T12:04:18.818Z,30
2018-07-03T12:05:22.190Z,29.8
2018-07-03T12:06:24.483Z,29.9
2018-07-03T12:07:26.798Z,29.1
2018-07-03T12:08:28.985Z,29.4
2018-07-03T12:09:31.073Z,29.7
2018-07-03T12:10:33.164Z,29.7
2018-07-03T12:11:35.536Z,29.5
2018-07-03T12:12:38.299Z,29.9
2018-07-03T12:13:40.693Z,30
2018-07-03T12:14:42.980Z,30.1
2018-07-03T12:15:45.238Z,29.7
2018-07-03T12:16:47.769Z,30
2018-07-03T12:17:50.931Z,29.8
2018-07-03T12:18:53.401Z,30
2018-07-03T12:19:55.567Z,30
2018-07-03T12:20:58.300Z,30
2018-07-03T12:22:01.373Z,29.7
2018-07-03T12:23:04.283Z,29.9
2018-07-03T12:24:06.480Z,29.9
2018-07-03T12:25:08.913Z,30.1
2018-07-03T12:26:11.041Z,29.6
2018-07-03T12:27:13.443Z,29.5
2018-07-03T12:28:15.651Z,30.1
2018-07-03T12:29:17.728Z,29.9
2018-07-03T12:30:20.142Z,29.9
2018-07-03T12:31:22.219Z,29.9
2018-07-03T12:32:24.914Z,30.4
2018-07-03T12:33:27.621Z,30.6
2018-07-03T12:34:29.943Z,30.2
2018-07-03T12:35:32.306Z,30.3
2018-07-03T12:36:34.386Z,30.5
2018-07-03T12:37:36.742Z,29.7
2018-07-03T12:38:38.996Z,30.3
2018-07-03T12:39:41.447Z,29.9
2018-07-03T12:40:43.875Z,29.6
2018-07-03T12:41:45.942Z,30.1
2018-07-03T12:42:48.012Z,30.1
2018-07-03T12:43:50.072Z,30.2
2018-07-03T12:44:52.519Z,30.1
2018-07-03T12:45:54.872Z,30.3
2018-07-03T12:46:56.936Z,29.9
2018-07-03T12:47:59.025Z,29.8
2018-07-03T12:49:01.084Z,29.7
2018-07-03T12:50:03.426Z,30.2
2018-07-03T12:51:05.444Z,30.5
2018-07-03T12:52:07.467Z,30.4
2018-07-03T12:53:09.487Z,30.3
2018-07-03T12:54:11.507Z,29.8
2018-07-03T12:55:13.916Z,29.8
2018-07-03T12:56:15.952Z,30.3
2018-07-03T12:57:18.006Z,30.7
2018-07-03T12:58:20.432Z,30.6
2018-07-03T12:59:22.421Z,30.5
2018-07-03T13:00:24.441Z,30.5
2018-07-03T13:01:26.465Z,29.9
2018-07-03T13:02:28.864Z,30.2
2018-07-03T13:03:30.891Z,30.4
2018-07-03T13:04:32.903Z,30.2
2018-07-03T13:05:34.930Z,30.6
2018-07-03T13:06:37.239Z,30.5
2018-07-03T13:07:39.250Z,30.3
2018-07-03T13:08:41.271Z,29.9
2018-07-03T13:09:43.288Z,29.8
2018-07-03T13:10:45.313Z,30.2
2018-07-03T13:11:47.337Z,30.2
2018-07-03T13:12:49.347Z,30.1
2018-07-03T13:13:51.381Z,30.2
2018-07-03T13:14:54.720Z,30.5
2018-07-03T13:15:57.205Z,30.6
2018-07-03T13:16:59.556Z,30.3
2018-07-03T13:18:01.888Z,30.7
2018-07-03T13:19:03.912Z,30.9
2018-07-03T13:20:05.938Z,30.7
2018-07-03T13:21:07.961Z,30.1
2018-07-03T13:22:09.985Z,29.8
2018-07-03T13:23:12.010Z,30
2018-07-03T13:24:14.036Z,30.4
2018-07-03T13:25:16.039Z,30.4
2018-07-03T13:26:18.065Z,29.7
2018-07-03T13:27:20.662Z,30
2018-07-03T13:28:22.963Z,30.5
2018-07-03T13:29:24.996Z,30.3
2018-07-03T13:30:27.597Z,30.5
2018-07-03T13:31:29.708Z,30.3
2018-07-03T13:32:31.923Z,30.3
2018-07-03T13:33:33.938Z,30.2
2018-07-03T13:34:36.353Z,30
2018-07-03T13:35:38.375Z,30.3
2018-07-03T13:36:40.386Z,30.3
2018-07-03T13:37:42.409Z,30
2018-07-03T13:38:44.436Z,29.8
2018-07-03T13:39:46.451Z,29.6
2018-07-03T13:40:48.479Z,30.3
2018-07-03T13:41:50.501Z,29.6
2018-07-03T13:42:52.529Z,30
2018-07-03T13:43:54.542Z,29.9
2018-07-03T13:44:56.560Z,30
2018-07-03T13:45:58.583Z,30.4
2018-07-03T13:47:00.994Z,30.6
2018-07-03T13:48:03.793Z,30.5
2018-07-03T13:49:05.779Z,30.5
2018-07-03T13:50:07.803Z,30.2
2018-07-03T13:51:09.864Z,30.5
2018-07-03T13:52:11.883Z,30.9
2018-07-03T13:53:13.902Z,30.7
2018-07-03T13:54:15.937Z,30.6
2018-07-03T13:55:17.956Z,30.2